Terminal Aerodrome Forecast
Issued by NWS

Home | Current Version | Previous Version | Text Only | Print | Product List | Glossary On
Versions: 1 2 3 4 5 6 7 8 9 10 11 12
288
FTUS44 KTSA 121132
TAFRVS
TAF
KRVS 121132Z 1212/1312 VRB03KT P6SM FEW250
     FM121500 36010KT P6SM SCT200
     FM121800 02009G15KT P6SM SCT120 BKN200
     FM130000 03010KT P6SM BKN120=

USA.gov is the U.S. government's official web portal to all federal, state and local government web resources and services.